sensor_id;sensor_type;location;lat;lon;timestamp;P1;durP1;ratioP1;P2;durP2;ratioP2
13927;SDS011;7036;50.834;4.718;2022-12-18T00:02:15;12.88;;;10.05;;
13927;SDS011;7036;50.834;4.718;2022-12-18T00:04:43;9.93;;;8.85;;
13927;SDS011;7036;50.834;4.718;2022-12-18T00:07:11;11.65;;;10.00;;
13927;SDS011;7036;50.834;4.718;2022-12-18T00:09:39;10.02;;;9.00;;
13927;SDS011;7036;50.834;4.718;2022-12-18T00:12:07;10.05;;;8.93;;
13927;SDS011;7036;50.834;4.718;2022-12-18T00:14:35;10.52;;;9.43;;
13927;SDS011;7036;50.834;4.718;2022-12-18T00:17:03;11.50;;;9.02;;
13927;SDS011;7036;50.834;4.718;2022-12-18T00:19:31;11.05;;;8.75;;
13927;SDS011;7036;50.834;4.718;2022-12-18T00:21:59;10.55;;;9.45;;
13927;SDS011;7036;50.834;4.718;2022-12-18T00:24:27;10.18;;;9.02;;
13927;SDS011;7036;50.834;4.718;2022-12-18T00:26:54;12.45;;;8.63;;
13927;SDS011;7036;50.834;4.718;2022-12-18T00:29:22;12.23;;;9.88;;
13927;SDS011;7036;50.834;4.718;2022-12-18T00:31:50;10.80;;;9.73;;
13927;SDS011;7036;50.834;4.718;2022-12-18T00:34:18;9.82;;;8.70;;
13927;SDS011;7036;50.834;4.718;2022-12-18T00:36:47;11.63;;;9.02;;
13927;SDS011;7036;50.834;4.718;2022-12-18T00:39:14;10.02;;;9.05;;
13927;SDS011;7036;50.834;4.718;2022-12-18T00:41:42;10.82;;;9.73;;
13927;SDS011;7036;50.834;4.718;2022-12-18T00:44:27;9.77;;;8.77;;
13927;SDS011;7036;50.834;4.718;2022-12-18T00:46:54;10.63;;;9.25;;
13927;SDS011;7036;50.834;4.718;2022-12-18T00:49:22;9.95;;;8.95;;
13927;SDS011;7036;50.834;4.718;2022-12-18T00:51:50;12.52;;;9.70;;
13927;SDS011;7036;50.834;4.718;2022-12-18T00:54:18;10.30;;;8.63;;
13927;SDS011;7036;50.834;4.718;2022-12-18T00:56:47;10.18;;;8.85;;
13927;SDS011;7036;50.834;4.718;2022-12-18T00:59:15;12.83;;;9.83;;
13927;SDS011;7036;50.834;4.718;2022-12-18T01:01:41;11.50;;;9.48;;
13927;SDS011;7036;50.834;4.718;2022-12-18T01:04:09;11.35;;;8.77;;
13927;SDS011;7036;50.834;4.718;2022-12-18T01:06:37;10.50;;;8.95;;
13927;SDS011;7036;50.834;4.718;2022-12-18T01:09:05;10.07;;;8.80;;
13927;SDS011;7036;50.834;4.718;2022-12-18T01:11:33;11.32;;;9.13;;
13927;SDS011;7036;50.834;4.718;2022-12-18T01:14:01;10.50;;;9.40;;
13927;SDS011;7036;50.834;4.718;2022-12-18T01:16:28;10.10;;;8.82;;
13927;SDS011;7036;50.834;4.718;2022-12-18T01:18:56;11.23;;;9.40;;
13927;SDS011;7036;50.834;4.718;2022-12-18T01:21:24;10.57;;;9.00;;
13927;SDS011;7036;50.834;4.718;2022-12-18T01:23:53;12.57;;;9.23;;
13927;SDS011;7036;50.834;4.718;2022-12-18T01:26:21;11.68;;;8.85;;
13927;SDS011;7036;50.834;4.718;2022-12-18T01:28:49;9.82;;;8.63;;
13927;SDS011;7036;50.834;4.718;2022-12-18T01:31:18;10.30;;;7.97;;
13927;SDS011;7036;50.834;4.718;2022-12-18T01:33:44;10.90;;;9.10;;
13927;SDS011;7036;50.834;4.718;2022-12-18T01:36:15;9.68;;;8.60;;
13927;SDS011;7036;50.834;4.718;2022-12-18T01:38:41;10.63;;;8.97;;
13927;SDS011;7036;50.834;4.718;2022-12-18T01:41:09;12.10;;;8.77;;
13927;SDS011;7036;50.834;4.718;2022-12-18T01:43:43;9.75;;;8.75;;
13927;SDS011;7036;50.834;4.718;2022-12-18T01:46:07;10.13;;;9.13;;
13927;SDS011;7036;50.834;4.718;2022-12-18T01:48:34;9.25;;;8.35;;
13927;SDS011;7036;50.834;4.718;2022-12-18T01:51:02;9.73;;;8.65;;
13927;SDS011;7036;50.834;4.718;2022-12-18T01:53:29;10.82;;;9.10;;
13927;SDS011;7036;50.834;4.718;2022-12-18T01:55:57;9.93;;;8.27;;
13927;SDS011;7036;50.834;4.718;2022-12-18T02:01:16;10.83;;;8.50;;
13927;SDS011;7036;50.834;4.718;2022-12-18T02:03:44;10.27;;;9.15;;
13927;SDS011;7036;50.834;4.718;2022-12-18T02:09:27;11.33;;;8.67;;
13927;SDS011;7036;50.834;4.718;2022-12-18T02:28:28;10.00;;;9.00;;
13927;SDS011;7036;50.834;4.718;2022-12-18T02:30:56;9.90;;;8.75;;
13927;SDS011;7036;50.834;4.718;2022-12-18T02:33:23;10.25;;;8.65;;
13927;SDS011;7036;50.834;4.718;2022-12-18T02:35:51;11.10;;;9.50;;
13927;SDS011;7036;50.834;4.718;2022-12-18T02:38:19;9.70;;;8.77;;
13927;SDS011;7036;50.834;4.718;2022-12-18T02:40:47;10.50;;;9.38;;
13927;SDS011;7036;50.834;4.718;2022-12-18T02:43:15;10.32;;;8.77;;
13927;SDS011;7036;50.834;4.718;2022-12-18T02:45:48;12.93;;;10.02;;
13927;SDS011;7036;50.834;4.718;2022-12-18T02:48:17;11.53;;;9.70;;
13927;SDS011;7036;50.834;4.718;2022-12-18T02:50:49;10.65;;;9.25;;
13927;SDS011;7036;50.834;4.718;2022-12-18T02:56:03;11.17;;;9.30;;
13927;SDS011;7036;50.834;4.718;2022-12-18T02:58:47;11.03;;;9.53;;
13927;SDS011;7036;50.834;4.718;2022-12-18T03:01:21;10.03;;;9.03;;
13927;SDS011;7036;50.834;4.718;2022-12-18T03:06:21;10.53;;;8.57;;
13927;SDS011;7036;50.834;4.718;2022-12-18T03:08:57;9.93;;;8.73;;
13927;SDS011;7036;50.834;4.718;2022-12-18T03:11:23;11.00;;;9.13;;
13927;SDS011;7036;50.834;4.718;2022-12-18T03:13:52;10.77;;;9.63;;
13927;SDS011;7036;50.834;4.718;2022-12-18T03:16:20;9.88;;;8.73;;
13927;SDS011;7036;50.834;4.718;2022-12-18T03:18:46;10.77;;;8.10;;
13927;SDS011;7036;50.834;4.718;2022-12-18T03:21:13;10.73;;;8.77;;
13927;SDS011;7036;50.834;4.718;2022-12-18T03:23:43;8.85;;;8.00;;
13927;SDS011;7036;50.834;4.718;2022-12-18T03:26:11;9.80;;;8.73;;
13927;SDS011;7036;50.834;4.718;2022-12-18T03:28:38;11.45;;;8.68;;
13927;SDS011;7036;50.834;4.718;2022-12-18T03:31:05;9.77;;;8.40;;
13927;SDS011;7036;50.834;4.718;2022-12-18T03:33:45;11.65;;;8.55;;
13927;SDS011;7036;50.834;4.718;2022-12-18T03:36:24;9.73;;;8.77;;
13927;SDS011;7036;50.834;4.718;2022-12-18T03:38:51;9.38;;;7.95;;
13927;SDS011;7036;50.834;4.718;2022-12-18T03:41:24;11.90;;;8.80;;
13927;SDS011;7036;50.834;4.718;2022-12-18T03:47:13;9.13;;;8.13;;
13927;SDS011;7036;50.834;4.718;2022-12-18T03:54:49;8.60;;;7.67;;
13927;SDS011;7036;50.834;4.718;2022-12-18T03:57:19;9.40;;;8.30;;
13927;SDS011;7036;50.834;4.718;2022-12-18T03:59:49;8.80;;;7.97;;
13927;SDS011;7036;50.834;4.718;2022-12-18T04:02:16;10.20;;;8.63;;
13927;SDS011;7036;50.834;4.718;2022-12-18T04:04:43;10.05;;;7.63;;
13927;SDS011;7036;50.834;4.718;2022-12-18T04:07:11;9.68;;;8.45;;
13927;SDS011;7036;50.834;4.718;2022-12-18T04:09:38;8.60;;;7.60;;
13927;SDS011;7036;50.834;4.718;2022-12-18T04:12:05;13.27;;;8.73;;
13927;SDS011;7036;50.834;4.718;2022-12-18T04:14:33;8.50;;;7.60;;
13927;SDS011;7036;50.834;4.718;2022-12-18T04:17:02;9.65;;;7.55;;
13927;SDS011;7036;50.834;4.718;2022-12-18T04:19:29;8.45;;;7.65;;
13927;SDS011;7036;50.834;4.718;2022-12-18T04:21:57;10.27;;;8.63;;
13927;SDS011;7036;50.834;4.718;2022-12-18T04:24:25;10.50;;;8.77;;
13927;SDS011;7036;50.834;4.718;2022-12-18T04:26:53;10.38;;;8.52;;
13927;SDS011;7036;50.834;4.718;2022-12-18T04:29:21;10.73;;;9.13;;
13927;SDS011;7036;50.834;4.718;2022-12-18T04:31:49;11.27;;;8.30;;
13927;SDS011;7036;50.834;4.718;2022-12-18T04:34:17;8.85;;;7.78;;
13927;SDS011;7036;50.834;4.718;2022-12-18T04:36:45;8.90;;;7.70;;
13927;SDS011;7036;50.834;4.718;2022-12-18T04:39:13;8.90;;;7.88;;
13927;SDS011;7036;50.834;4.718;2022-12-18T04:41:41;9.73;;;8.27;;
13927;SDS011;7036;50.834;4.718;2022-12-18T04:44:09;9.05;;;8.02;;
13927;SDS011;7036;50.834;4.718;2022-12-18T04:46:37;9.52;;;8.50;;
13927;SDS011;7036;50.834;4.718;2022-12-18T04:49:04;10.90;;;9.40;;
13927;SDS011;7036;50.834;4.718;2022-12-18T04:51:32;9.00;;;8.02;;
13927;SDS011;7036;50.834;4.718;2022-12-18T04:54:00;9.82;;;8.35;;
13927;SDS011;7036;50.834;4.718;2022-12-18T04:56:30;10.18;;;8.55;;
13927;SDS011;7036;50.834;4.718;2022-12-18T04:58:56;9.43;;;8.35;;
13927;SDS011;7036;50.834;4.718;2022-12-18T05:01:24;10.57;;;8.55;;
13927;SDS011;7036;50.834;4.718;2022-12-18T05:03:52;8.57;;;7.60;;
13927;SDS011;7036;50.834;4.718;2022-12-18T05:06:19;9.13;;;8.23;;
13927;SDS011;7036;50.834;4.718;2022-12-18T05:08:47;9.77;;;8.57;;
13927;SDS011;7036;50.834;4.718;2022-12-18T05:11:15;10.45;;;8.38;;
13927;SDS011;7036;50.834;4.718;2022-12-18T05:13:43;8.73;;;7.80;;
13927;SDS011;7036;50.834;4.718;2022-12-18T05:16:11;8.93;;;7.68;;
13927;SDS011;7036;50.834;4.718;2022-12-18T05:18:38;10.65;;;8.05;;
13927;SDS011;7036;50.834;4.718;2022-12-18T05:21:06;9.07;;;8.13;;
13927;SDS011;7036;50.834;4.718;2022-12-18T05:23:33;8.52;;;7.40;;
13927;SDS011;7036;50.834;4.718;2022-12-18T05:26:01;8.63;;;7.50;;
13927;SDS011;7036;50.834;4.718;2022-12-18T05:28:28;9.23;;;7.85;;
13927;SDS011;7036;50.834;4.718;2022-12-18T05:30:56;8.30;;;7.53;;
13927;SDS011;7036;50.834;4.718;2022-12-18T05:33:24;16.52;;;8.35;;
13927;SDS011;7036;50.834;4.718;2022-12-18T05:35:51;8.90;;;8.00;;
13927;SDS011;7036;50.834;4.718;2022-12-18T05:38:19;9.57;;;7.78;;
13927;SDS011;7036;50.834;4.718;2022-12-18T05:40:47;8.98;;;7.88;;
13927;SDS011;7036;50.834;4.718;2022-12-18T05:43:15;8.25;;;7.40;;
13927;SDS011;7036;50.834;4.718;2022-12-18T05:45:43;8.93;;;7.20;;
13927;SDS011;7036;50.834;4.718;2022-12-18T05:48:12;9.52;;;7.32;;
13927;SDS011;7036;50.834;4.718;2022-12-18T05:50:40;8.47;;;7.60;;
13927;SDS011;7036;50.834;4.718;2022-12-18T05:53:06;10.40;;;8.15;;
13927;SDS011;7036;50.834;4.718;2022-12-18T05:55:34;9.23;;;8.23;;
13927;SDS011;7036;50.834;4.718;2022-12-18T05:58:02;9.25;;;7.68;;
13927;SDS011;7036;50.834;4.718;2022-12-18T06:00:30;10.10;;;7.25;;
13927;SDS011;7036;50.834;4.718;2022-12-18T06:02:57;8.20;;;7.38;;
13927;SDS011;7036;50.834;4.718;2022-12-18T06:05:24;9.05;;;8.15;;
13927;SDS011;7036;50.834;4.718;2022-12-18T06:07:52;8.82;;;7.93;;
13927;SDS011;7036;50.834;4.718;2022-12-18T06:10:20;9.45;;;7.47;;
13927;SDS011;7036;50.834;4.718;2022-12-18T06:12:48;9.10;;;7.57;;
13927;SDS011;7036;50.834;4.718;2022-12-18T06:15:16;10.13;;;8.35;;
13927;SDS011;7036;50.834;4.718;2022-12-18T06:17:44;8.45;;;6.75;;
13927;SDS011;7036;50.834;4.718;2022-12-18T06:20:12;8.23;;;7.43;;
13927;SDS011;7036;50.834;4.718;2022-12-18T06:22:39;8.55;;;6.95;;
13927;SDS011;7036;50.834;4.718;2022-12-18T06:25:07;9.30;;;7.38;;
13927;SDS011;7036;50.834;4.718;2022-12-18T06:27:35;8.25;;;7.03;;
13927;SDS011;7036;50.834;4.718;2022-12-18T06:30:03;9.10;;;7.18;;
13927;SDS011;7036;50.834;4.718;2022-12-18T06:32:31;7.63;;;6.72;;
13927;SDS011;7036;50.834;4.718;2022-12-18T06:34:59;9.55;;;7.88;;
13927;SDS011;7036;50.834;4.718;2022-12-18T06:37:27;8.95;;;7.22;;
13927;SDS011;7036;50.834;4.718;2022-12-18T06:39:54;8.63;;;7.50;;
13927;SDS011;7036;50.834;4.718;2022-12-18T06:42:22;9.20;;;7.45;;
13927;SDS011;7036;50.834;4.718;2022-12-18T06:44:49;8.90;;;7.35;;
13927;SDS011;7036;50.834;4.718;2022-12-18T06:47:17;11.60;;;7.97;;
13927;SDS011;7036;50.834;4.718;2022-12-18T06:49:45;9.23;;;7.65;;
13927;SDS011;7036;50.834;4.718;2022-12-18T06:52:12;10.00;;;7.82;;
13927;SDS011;7036;50.834;4.718;2022-12-18T06:54:39;8.05;;;7.25;;
13927;SDS011;7036;50.834;4.718;2022-12-18T06:57:06;8.43;;;7.68;;
13927;SDS011;7036;50.834;4.718;2022-12-18T06:59:33;8.52;;;7.72;;
13927;SDS011;7036;50.834;4.718;2022-12-18T07:02:01;8.88;;;7.88;;
13927;SDS011;7036;50.834;4.718;2022-12-18T07:04:29;8.93;;;7.28;;
13927;SDS011;7036;50.834;4.718;2022-12-18T07:06:57;8.48;;;7.57;;
13927;SDS011;7036;50.834;4.718;2022-12-18T07:09:25;9.77;;;7.60;;
13927;SDS011;7036;50.834;4.718;2022-12-18T07:11:53;7.93;;;6.63;;
13927;SDS011;7036;50.834;4.718;2022-12-18T07:14:21;7.65;;;6.85;;
13927;SDS011;7036;50.834;4.718;2022-12-18T07:16:48;8.07;;;6.85;;
13927;SDS011;7036;50.834;4.718;2022-12-18T07:19:15;8.43;;;7.22;;
13927;SDS011;7036;50.834;4.718;2022-12-18T07:21:43;8.60;;;7.25;;
13927;SDS011;7036;50.834;4.718;2022-12-18T07:24:11;7.90;;;6.95;;
13927;SDS011;7036;50.834;4.718;2022-12-18T07:26:39;8.02;;;6.78;;
13927;SDS011;7036;50.834;4.718;2022-12-18T07:29:07;8.80;;;6.88;;
13927;SDS011;7036;50.834;4.718;2022-12-18T07:31:35;15.13;;;7.43;;
13927;SDS011;7036;50.834;4.718;2022-12-18T07:34:03;13.60;;;7.32;;
13927;SDS011;7036;50.834;4.718;2022-12-18T07:36:30;10.40;;;7.10;;
13927;SDS011;7036;50.834;4.718;2022-12-18T07:38:58;12.10;;;6.50;;
13927;SDS011;7036;50.834;4.718;2022-12-18T07:41:25;11.20;;;7.25;;
13927;SDS011;7036;50.834;4.718;2022-12-18T07:43:52;11.95;;;7.10;;
13927;SDS011;7036;50.834;4.718;2022-12-18T07:46:19;10.70;;;6.50;;
13927;SDS011;7036;50.834;4.718;2022-12-18T07:48:46;10.85;;;6.78;;
13927;SDS011;7036;50.834;4.718;2022-12-18T07:51:14;9.73;;;7.22;;
13927;SDS011;7036;50.834;4.718;2022-12-18T07:53:41;14.25;;;6.70;;
13927;SDS011;7036;50.834;4.718;2022-12-18T07:56:09;9.20;;;6.35;;
13927;SDS011;7036;50.834;4.718;2022-12-18T07:58:36;8.85;;;6.70;;
13927;SDS011;7036;50.834;4.718;2022-12-18T08:01:10;7.90;;;6.88;;
13927;SDS011;7036;50.834;4.718;2022-12-18T08:03:34;8.07;;;6.43;;
13927;SDS011;7036;50.834;4.718;2022-12-18T08:06:01;11.82;;;6.68;;
13927;SDS011;7036;50.834;4.718;2022-12-18T08:08:29;7.20;;;6.50;;
13927;SDS011;7036;50.834;4.718;2022-12-18T08:10:57;7.88;;;6.38;;
13927;SDS011;7036;50.834;4.718;2022-12-18T08:13:25;7.75;;;6.28;;
13927;SDS011;7036;50.834;4.718;2022-12-18T08:16:00;7.40;;;6.47;;
13927;SDS011;7036;50.834;4.718;2022-12-18T08:18:25;9.33;;;6.57;;
13927;SDS011;7036;50.834;4.718;2022-12-18T08:20:53;9.65;;;6.85;;
13927;SDS011;7036;50.834;4.718;2022-12-18T08:23:21;19.50;;;7.35;;
13927;SDS011;7036;50.834;4.718;2022-12-18T08:25:49;8.52;;;6.18;;
13927;SDS011;7036;50.834;4.718;2022-12-18T08:28:17;8.68;;;6.80;;
13927;SDS011;7036;50.834;4.718;2022-12-18T08:30:45;7.97;;;6.25;;
13927;SDS011;7036;50.834;4.718;2022-12-18T08:33:12;8.02;;;6.03;;
13927;SDS011;7036;50.834;4.718;2022-12-18T08:35:41;8.98;;;6.28;;
13927;SDS011;7036;50.834;4.718;2022-12-18T08:38:08;7.83;;;6.43;;
13927;SDS011;7036;50.834;4.718;2022-12-18T08:40:35;8.47;;;6.67;;
13927;SDS011;7036;50.834;4.718;2022-12-18T08:43:02;11.85;;;6.03;;
13927;SDS011;7036;50.834;4.718;2022-12-18T08:45:47;8.50;;;6.40;;
13927;SDS011;7036;50.834;4.718;2022-12-18T08:48:15;9.95;;;6.50;;
13927;SDS011;7036;50.834;4.718;2022-12-18T08:50:43;9.65;;;5.90;;
13927;SDS011;7036;50.834;4.718;2022-12-18T08:53:11;10.73;;;6.40;;
13927;SDS011;7036;50.834;4.718;2022-12-18T08:55:39;9.52;;;5.90;;
13927;SDS011;7036;50.834;4.718;2022-12-18T08:58:07;8.82;;;5.60;;
13927;SDS011;7036;50.834;4.718;2022-12-18T09:00:35;7.88;;;5.68;;
13927;SDS011;7036;50.834;4.718;2022-12-18T09:03:03;6.47;;;5.32;;
13927;SDS011;7036;50.834;4.718;2022-12-18T09:05:31;7.53;;;5.88;;
13927;SDS011;7036;50.834;4.718;2022-12-18T09:08:00;7.85;;;5.88;;
13927;SDS011;7036;50.834;4.718;2022-12-18T09:10:27;11.70;;;8.40;;
13927;SDS011;7036;50.834;4.718;2022-12-18T09:12:54;17.50;;;7.82;;
13927;SDS011;7036;50.834;4.718;2022-12-18T09:15:22;14.82;;;9.65;;
13927;SDS011;7036;50.834;4.718;2022-12-18T09:17:50;17.60;;;10.15;;
13927;SDS011;7036;50.834;4.718;2022-12-18T09:20:17;19.05;;;10.60;;
13927;SDS011;7036;50.834;4.718;2022-12-18T09:22:44;17.80;;;10.80;;
13927;SDS011;7036;50.834;4.718;2022-12-18T09:25:11;14.90;;;9.90;;
13927;SDS011;7036;50.834;4.718;2022-12-18T09:27:39;16.52;;;9.73;;
13927;SDS011;7036;50.834;4.718;2022-12-18T09:30:07;15.82;;;10.45;;
13927;SDS011;7036;50.834;4.718;2022-12-18T09:32:35;20.88;;;10.20;;
13927;SDS011;7036;50.834;4.718;2022-12-18T09:35:03;17.25;;;9.38;;
13927;SDS011;7036;50.834;4.718;2022-12-18T09:37:30;15.90;;;9.63;;
13927;SDS011;7036;50.834;4.718;2022-12-18T09:39:58;17.60;;;10.07;;
13927;SDS011;7036;50.834;4.718;2022-12-18T09:42:25;18.10;;;9.20;;
13927;SDS011;7036;50.834;4.718;2022-12-18T09:44:53;17.10;;;9.00;;
13927;SDS011;7036;50.834;4.718;2022-12-18T09:49:50;12.73;;;8.70;;
13927;SDS011;7036;50.834;4.718;2022-12-18T09:55:00;19.20;;;9.20;;
13927;SDS011;7036;50.834;4.718;2022-12-18T09:57:25;12.83;;;7.93;;
13927;SDS011;7036;50.834;4.718;2022-12-18T09:59:54;14.85;;;7.85;;
13927;SDS011;7036;50.834;4.718;2022-12-18T10:02:25;18.95;;;8.68;;
13927;SDS011;7036;50.834;4.718;2022-12-18T10:05:12;14.63;;;8.57;;
13927;SDS011;7036;50.834;4.718;2022-12-18T10:07:47;18.90;;;8.50;;
13927;SDS011;7036;50.834;4.718;2022-12-18T10:10:57;15.00;;;7.20;;
13927;SDS011;7036;50.834;4.718;2022-12-18T10:12:53;11.90;;;7.43;;
13927;SDS011;7036;50.834;4.718;2022-12-18T10:15:24;11.60;;;6.93;;
13927;SDS011;7036;50.834;4.718;2022-12-18T10:18:01;14.87;;;7.63;;
13927;SDS011;7036;50.834;4.718;2022-12-18T10:20:27;11.37;;;6.97;;
13927;SDS011;7036;50.834;4.718;2022-12-18T10:23:00;21.47;;;6.27;;
13927;SDS011;7036;50.834;4.718;2022-12-18T10:28:27;14.23;;;6.57;;
13927;SDS011;7036;50.834;4.718;2022-12-18T10:30:55;18.20;;;6.90;;
13927;SDS011;7036;50.834;4.718;2022-12-18T10:33:23;11.43;;;6.43;;
13927;SDS011;7036;50.834;4.718;2022-12-18T10:35:50;10.90;;;6.38;;
13927;SDS011;7036;50.834;4.718;2022-12-18T10:43:26;12.33;;;6.80;;
13927;SDS011;7036;50.834;4.718;2022-12-18T10:51:05;12.73;;;6.10;;
13927;SDS011;7036;50.834;4.718;2022-12-18T10:53:33;9.10;;;5.72;;
13927;SDS011;7036;50.834;4.718;2022-12-18T10:56:00;8.20;;;5.72;;
13927;SDS011;7036;50.834;4.718;2022-12-18T10:58:31;8.80;;;5.75;;
13927;SDS011;7036;50.834;4.718;2022-12-18T11:01:10;10.80;;;6.07;;
13927;SDS011;7036;50.834;4.718;2022-12-18T11:06:13;9.53;;;5.57;;
13927;SDS011;7036;50.834;4.718;2022-12-18T11:08:40;7.80;;;4.80;;
13927;SDS011;7036;50.834;4.718;2022-12-18T11:11:15;6.88;;;5.25;;
13927;SDS011;7036;50.834;4.718;2022-12-18T11:13:35;7.65;;;5.38;;
13927;SDS011;7036;50.834;4.718;2022-12-18T11:16:03;7.63;;;5.70;;
13927;SDS011;7036;50.834;4.718;2022-12-18T11:18:34;5.65;;;4.57;;
13927;SDS011;7036;50.834;4.718;2022-12-18T11:21:08;8.27;;;5.43;;
13927;SDS011;7036;50.834;4.718;2022-12-18T11:23:34;7.27;;;4.73;;
13927;SDS011;7036;50.834;4.718;2022-12-18T11:26:03;5.45;;;4.53;;
13927;SDS011;7036;50.834;4.718;2022-12-18T11:31:19;5.57;;;4.50;;
13927;SDS011;7036;50.834;4.718;2022-12-18T11:36:33;7.87;;;5.13;;
13927;SDS011;7036;50.834;4.718;2022-12-18T11:39:02;6.78;;;4.78;;
13927;SDS011;7036;50.834;4.718;2022-12-18T11:44:18;6.20;;;4.83;;
13927;SDS011;7036;50.834;4.718;2022-12-18T11:46:56;5.50;;;4.73;;
13927;SDS011;7036;50.834;4.718;2022-12-18T11:49:33;7.25;;;4.70;;
13927;SDS011;7036;50.834;4.718;2022-12-18T11:54:28;7.05;;;4.82;;
13927;SDS011;7036;50.834;4.718;2022-12-18T11:59:52;5.93;;;4.70;;
13927;SDS011;7036;50.834;4.718;2022-12-18T12:07:57;4.80;;;4.30;;
13927;SDS011;7036;50.834;4.718;2022-12-18T12:10:31;5.63;;;4.40;;
13927;SDS011;7036;50.834;4.718;2022-12-18T12:13:25;5.27;;;4.30;;
13927;SDS011;7036;50.834;4.718;2022-12-18T12:16:32;4.83;;;4.30;;
13927;SDS011;7036;50.834;4.718;2022-12-18T12:21:03;9.57;;;4.50;;
13927;SDS011;7036;50.834;4.718;2022-12-18T12:26:10;6.73;;;4.60;;
13927;SDS011;7036;50.834;4.718;2022-12-18T12:28:47;6.93;;;4.40;;
13927;SDS011;7036;50.834;4.718;2022-12-18T12:31:26;5.63;;;4.63;;
13927;SDS011;7036;50.834;4.718;2022-12-18T12:34:09;7.07;;;4.47;;
13927;SDS011;7036;50.834;4.718;2022-12-18T12:36:38;5.80;;;4.80;;
13927;SDS011;7036;50.834;4.718;2022-12-18T12:39:08;7.37;;;4.47;;
13927;SDS011;7036;50.834;4.718;2022-12-18T12:41:34;7.85;;;4.75;;
13927;SDS011;7036;50.834;4.718;2022-12-18T12:44:28;5.63;;;4.20;;
13927;SDS011;7036;50.834;4.718;2022-12-18T12:46:56;4.17;;;3.77;;
13927;SDS011;7036;50.834;4.718;2022-12-18T12:49:24;7.30;;;4.50;;
13927;SDS011;7036;50.834;4.718;2022-12-18T12:54:37;4.90;;;4.40;;
13927;SDS011;7036;50.834;4.718;2022-12-18T13:00:13;6.10;;;4.80;;
13927;SDS011;7036;50.834;4.718;2022-12-18T13:08:24;5.87;;;4.30;;
13927;SDS011;7036;50.834;4.718;2022-12-18T13:10:49;4.93;;;4.13;;
13927;SDS011;7036;50.834;4.718;2022-12-18T13:13:18;4.45;;;4.05;;
13927;SDS011;7036;50.834;4.718;2022-12-18T13:15:45;7.07;;;4.20;;
13927;SDS011;7036;50.834;4.718;2022-12-18T13:18:13;7.97;;;4.60;;
13927;SDS011;7036;50.834;4.718;2022-12-18T13:21:02;7.82;;;4.93;;
13927;SDS011;7036;50.834;4.718;2022-12-18T13:23:25;5.00;;;4.00;;
13927;SDS011;7036;50.834;4.718;2022-12-18T13:25:46;7.03;;;4.67;;
13927;SDS011;7036;50.834;4.718;2022-12-18T13:28:15;5.43;;;4.45;;
13927;SDS011;7036;50.834;4.718;2022-12-18T13:41:00;5.47;;;4.30;;
13927;SDS011;7036;50.834;4.718;2022-12-18T13:43:31;5.33;;;4.43;;
13927;SDS011;7036;50.834;4.718;2022-12-18T13:46:04;8.70;;;5.07;;
13927;SDS011;7036;50.834;4.718;2022-12-18T13:48:31;11.40;;;5.40;;
13927;SDS011;7036;50.834;4.718;2022-12-18T13:50:57;14.23;;;5.50;;
13927;SDS011;7036;50.834;4.718;2022-12-18T13:53:27;9.97;;;5.23;;
13927;SDS011;7036;50.834;4.718;2022-12-18T13:55:54;6.70;;;4.75;;
13927;SDS011;7036;50.834;4.718;2022-12-18T13:58:21;9.75;;;4.72;;
13927;SDS011;7036;50.834;4.718;2022-12-18T14:00:48;9.48;;;4.60;;
13927;SDS011;7036;50.834;4.718;2022-12-18T14:03:26;6.88;;;4.88;;
13927;SDS011;7036;50.834;4.718;2022-12-18T14:05:56;6.07;;;4.93;;
13927;SDS011;7036;50.834;4.718;2022-12-18T14:08:32;4.60;;;4.10;;
13927;SDS011;7036;50.834;4.718;2022-12-18T14:10:54;4.93;;;4.00;;
13927;SDS011;7036;50.834;4.718;2022-12-18T14:13:30;6.05;;;4.55;;
13927;SDS011;7036;50.834;4.718;2022-12-18T14:15:55;5.67;;;4.73;;
13927;SDS011;7036;50.834;4.718;2022-12-18T14:18:29;5.53;;;5.00;;
13927;SDS011;7036;50.834;4.718;2022-12-18T14:21:18;6.27;;;4.97;;
13927;SDS011;7036;50.834;4.718;2022-12-18T14:23:44;5.17;;;4.17;;
13927;SDS011;7036;50.834;4.718;2022-12-18T14:28:58;5.03;;;4.10;;
13927;SDS011;7036;50.834;4.718;2022-12-18T14:31:25;5.87;;;4.60;;
13927;SDS011;7036;50.834;4.718;2022-12-18T14:33:52;7.93;;;4.72;;
13927;SDS011;7036;50.834;4.718;2022-12-18T14:36:29;5.47;;;4.50;;
13927;SDS011;7036;50.834;4.718;2022-12-18T14:38:49;5.40;;;4.25;;
13927;SDS011;7036;50.834;4.718;2022-12-18T14:41:19;6.50;;;5.10;;
13927;SDS011;7036;50.834;4.718;2022-12-18T14:43:46;7.27;;;4.73;;
13927;SDS011;7036;50.834;4.718;2022-12-18T14:49:17;5.93;;;4.90;;
13927;SDS011;7036;50.834;4.718;2022-12-18T14:51:32;7.03;;;4.93;;
13927;SDS011;7036;50.834;4.718;2022-12-18T14:54:03;11.15;;;5.22;;
13927;SDS011;7036;50.834;4.718;2022-12-18T14:56:30;8.30;;;5.07;;
13927;SDS011;7036;50.834;4.718;2022-12-18T15:01:33;8.27;;;5.03;;
13927;SDS011;7036;50.834;4.718;2022-12-18T15:03:58;7.07;;;4.87;;
13927;SDS011;7036;50.834;4.718;2022-12-18T15:06:34;7.55;;;5.43;;
13927;SDS011;7036;50.834;4.718;2022-12-18T15:09:02;8.83;;;6.00;;
13927;SDS011;7036;50.834;4.718;2022-12-18T15:11:29;5.97;;;5.22;;
13927;SDS011;7036;50.834;4.718;2022-12-18T15:13:57;8.73;;;5.80;;
13927;SDS011;7036;50.834;4.718;2022-12-18T15:16:23;8.73;;;5.50;;
13927;SDS011;7036;50.834;4.718;2022-12-18T15:18:50;6.82;;;5.70;;
13927;SDS011;7036;50.834;4.718;2022-12-18T15:21:18;6.72;;;5.03;;
13927;SDS011;7036;50.834;4.718;2022-12-18T15:23:51;9.07;;;5.53;;
13927;SDS011;7036;50.834;4.718;2022-12-18T15:26:18;6.97;;;5.57;;
13927;SDS011;7036;50.834;4.718;2022-12-18T15:28:46;10.15;;;5.20;;
13927;SDS011;7036;50.834;4.718;2022-12-18T15:34:08;7.47;;;5.40;;
13927;SDS011;7036;50.834;4.718;2022-12-18T15:36:19;6.80;;;5.70;;
13927;SDS011;7036;50.834;4.718;2022-12-18T15:38:46;8.93;;;5.50;;
13927;SDS011;7036;50.834;4.718;2022-12-18T15:41:14;8.32;;;5.90;;
13927;SDS011;7036;50.834;4.718;2022-12-18T15:43:42;6.00;;;5.05;;
13927;SDS011;7036;50.834;4.718;2022-12-18T15:46:15;7.00;;;5.90;;
13927;SDS011;7036;50.834;4.718;2022-12-18T15:48:39;7.03;;;5.27;;
13927;SDS011;7036;50.834;4.718;2022-12-18T15:51:49;7.25;;;5.28;;
13927;SDS011;7036;50.834;4.718;2022-12-18T15:53:55;7.03;;;5.37;;
13927;SDS011;7036;50.834;4.718;2022-12-18T15:56:22;7.47;;;5.47;;
13927;SDS011;7036;50.834;4.718;2022-12-18T15:59:11;8.30;;;6.10;;
13927;SDS011;7036;50.834;4.718;2022-12-18T16:01:37;6.80;;;5.27;;
13927;SDS011;7036;50.834;4.718;2022-12-18T16:04:05;6.13;;;5.47;;
13927;SDS011;7036;50.834;4.718;2022-12-18T16:06:32;10.23;;;5.55;;
13927;SDS011;7036;50.834;4.718;2022-12-18T16:09:00;6.00;;;5.40;;
13927;SDS011;7036;50.834;4.718;2022-12-18T16:11:28;5.70;;;5.10;;
13927;SDS011;7036;50.834;4.718;2022-12-18T16:14:04;8.27;;;6.00;;
13927;SDS011;7036;50.834;4.718;2022-12-18T16:16:31;6.13;;;5.40;;
13927;SDS011;7036;50.834;4.718;2022-12-18T16:18:58;7.63;;;6.10;;
13927;SDS011;7036;50.834;4.718;2022-12-18T16:21:25;6.80;;;5.47;;
13927;SDS011;7036;50.834;4.718;2022-12-18T16:23:53;6.03;;;5.05;;
13927;SDS011;7036;50.834;4.718;2022-12-18T16:26:21;6.72;;;5.30;;
13927;SDS011;7036;50.834;4.718;2022-12-18T16:28:48;5.27;;;4.70;;
13927;SDS011;7036;50.834;4.718;2022-12-18T16:31:15;7.55;;;5.57;;
13927;SDS011;7036;50.834;4.718;2022-12-18T16:33:44;6.45;;;5.22;;
13927;SDS011;7036;50.834;4.718;2022-12-18T16:36:10;7.77;;;5.60;;
13927;SDS011;7036;50.834;4.718;2022-12-18T16:38:39;6.85;;;5.00;;
13927;SDS011;7036;50.834;4.718;2022-12-18T16:41:15;6.90;;;5.40;;
13927;SDS011;7036;50.834;4.718;2022-12-18T16:43:58;7.67;;;5.53;;
13927;SDS011;7036;50.834;4.718;2022-12-18T16:46:26;7.22;;;5.47;;
13927;SDS011;7036;50.834;4.718;2022-12-18T16:48:53;7.40;;;5.72;;
13927;SDS011;7036;50.834;4.718;2022-12-18T16:51:21;6.38;;;5.45;;
13927;SDS011;7036;50.834;4.718;2022-12-18T16:53:49;6.25;;;5.20;;
13927;SDS011;7036;50.834;4.718;2022-12-18T16:56:17;5.40;;;4.90;;
13927;SDS011;7036;50.834;4.718;2022-12-18T16:58:52;6.60;;;5.72;;
13927;SDS011;7036;50.834;4.718;2022-12-18T17:01:18;7.00;;;5.50;;